sensor_id;sensor_type;location;lat;lon;timestamp;temperature;humidity
64858;SHT30;51335;51.148;6.950;2023-03-14T00:00:15;10.72;85.58
64858;SHT30;51335;51.148;6.950;2023-03-14T00:00:45;10.67;85.64
64858;SHT30;51335;51.148;6.950;2023-03-14T00:01:17;10.65;85.77
64858;SHT30;51335;51.148;6.950;2023-03-14T00:01:48;10.69;85.77
64858;SHT30;51335;51.148;6.950;2023-03-14T00:02:18;10.67;85.79
64858;SHT30;51335;51.148;6.950;2023-03-14T00:02:53;10.69;85.89
64858;SHT30;51335;51.148;6.950;2023-03-14T00:03:23;10.67;85.84
64858;SHT30;51335;51.148;6.950;2023-03-14T00:03:54;10.66;85.88
64858;SHT30;51335;51.148;6.950;2023-03-14T00:04:24;10.70;85.89
64858;SHT30;51335;51.148;6.950;2023-03-14T00:04:55;10.67;85.85
64858;SHT30;51335;51.148;6.950;2023-03-14T00:05:25;10.67;85.87
64858;SHT30;51335;51.148;6.950;2023-03-14T00:05:55;10.66;85.88
64858;SHT30;51335;51.148;6.950;2023-03-14T00:06:26;10.70;85.91
64858;SHT30;51335;51.148;6.950;2023-03-14T00:06:56;10.73;85.89
64858;SHT30;51335;51.148;6.950;2023-03-14T00:07:27;10.79;85.62
64858;SHT30;51335;51.148;6.950;2023-03-14T00:07:57;10.76;85.58
64858;SHT30;51335;51.148;6.950;2023-03-14T00:08:27;10.77;85.65
64858;SHT30;51335;51.148;6.950;2023-03-14T00:08:58;10.75;85.68
64858;SHT30;51335;51.148;6.950;2023-03-14T00:09:28;10.76;85.71
64858;SHT30;51335;51.148;6.950;2023-03-14T00:09:58;10.70;85.76
64858;SHT30;51335;51.148;6.950;2023-03-14T00:10:29;10.79;85.76
64858;SHT30;51335;51.148;6.950;2023-03-14T00:11:05;10.77;85.70
64858;SHT30;51335;51.148;6.950;2023-03-14T00:11:35;10.77;85.69
64858;SHT30;51335;51.148;6.950;2023-03-14T00:12:06;10.80;85.70
64858;SHT30;51335;51.148;6.950;2023-03-14T00:12:36;10.79;85.66
64858;SHT30;51335;51.148;6.950;2023-03-14T00:13:07;10.77;85.74
64858;SHT30;51335;51.148;6.950;2023-03-14T00:13:37;10.80;85.70
64858;SHT30;51335;51.148;6.950;2023-03-14T00:14:08;10.80;85.72
64858;SHT30;51335;51.148;6.950;2023-03-14T00:14:38;10.81;85.70
64858;SHT30;51335;51.148;6.950;2023-03-14T00:15:09;10.77;85.71
64858;SHT30;51335;51.148;6.950;2023-03-14T00:15:39;10.84;85.58
64858;SHT30;51335;51.148;6.950;2023-03-14T00:16:11;10.89;85.55
64858;SHT30;51335;51.148;6.950;2023-03-14T00:16:45;10.89;85.38
64858;SHT30;51335;51.148;6.950;2023-03-14T00:17:16;10.92;85.33
64858;SHT30;51335;51.148;6.950;2023-03-14T00:17:46;10.93;85.32
64858;SHT30;51335;51.148;6.950;2023-03-14T00:18:16;10.95;85.21
64858;SHT30;51335;51.148;6.950;2023-03-14T00:18:46;10.93;85.22
64858;SHT30;51335;51.148;6.950;2023-03-14T00:19:17;10.97;85.17
64858;SHT30;51335;51.148;6.950;2023-03-14T00:19:47;10.97;85.06
64858;SHT30;51335;51.148;6.950;2023-03-14T00:20:17;10.93;85.04
64858;SHT30;51335;51.148;6.950;2023-03-14T00:20:48;10.93;85.16
64858;SHT30;51335;51.148;6.950;2023-03-14T00:21:18;10.90;85.21
64858;SHT30;51335;51.148;6.950;2023-03-14T00:21:48;10.92;85.29
64858;SHT30;51335;51.148;6.950;2023-03-14T00:22:20;10.95;85.13
64858;SHT30;51335;51.148;6.950;2023-03-14T00:22:50;10.95;85.13
64858;SHT30;51335;51.148;6.950;2023-03-14T00:23:20;10.99;85.16
64858;SHT30;51335;51.148;6.950;2023-03-14T00:23:51;10.93;85.05
64858;SHT30;51335;51.148;6.950;2023-03-14T00:24:21;10.99;85.12
64858;SHT30;51335;51.148;6.950;2023-03-14T00:24:51;11.03;84.94
64858;SHT30;51335;51.148;6.950;2023-03-14T00:25:22;11.01;84.93
64858;SHT30;51335;51.148;6.950;2023-03-14T00:25:52;11.03;84.85
64858;SHT30;51335;51.148;6.950;2023-03-14T00:26:23;11.11;84.68
64858;SHT30;51335;51.148;6.950;2023-03-14T00:26:53;11.14;84.50
64858;SHT30;51335;51.148;6.950;2023-03-14T00:27:23;11.13;84.33
64858;SHT30;51335;51.148;6.950;2023-03-14T00:27:53;11.13;84.39
64858;SHT30;51335;51.148;6.950;2023-03-14T00:28:24;11.14;84.36
64858;SHT30;51335;51.148;6.950;2023-03-14T00:28:54;11.16;84.36
64858;SHT30;51335;51.148;6.950;2023-03-14T00:29:25;11.17;84.30
64858;SHT30;51335;51.148;6.950;2023-03-14T00:29:55;11.24;84.27
64858;SHT30;51335;51.148;6.950;2023-03-14T00:30:25;11.24;84.13
64858;SHT30;51335;51.148;6.950;2023-03-14T00:30:56;11.28;84.06
64858;SHT30;51335;51.148;6.950;2023-03-14T00:31:26;11.30;83.96
64858;SHT30;51335;51.148;6.950;2023-03-14T00:31:57;11.31;83.93
64858;SHT30;51335;51.148;6.950;2023-03-14T00:32:27;11.28;83.85
64858;SHT30;51335;51.148;6.950;2023-03-14T00:32:57;11.32;83.88
64858;SHT30;51335;51.148;6.950;2023-03-14T00:33:28;11.32;83.78
64858;SHT30;51335;51.148;6.950;2023-03-14T00:33:58;11.28;83.87
64858;SHT30;51335;51.148;6.950;2023-03-14T00:34:30;11.37;83.79
64858;SHT30;51335;51.148;6.950;2023-03-14T00:35:01;11.32;83.68
64858;SHT30;51335;51.148;6.950;2023-03-14T00:35:31;11.34;83.70
64858;SHT30;51335;51.148;6.950;2023-03-14T00:36:09;11.32;83.73
64858;SHT30;51335;51.148;6.950;2023-03-14T00:36:40;11.31;83.65
64858;SHT30;51335;51.148;6.950;2023-03-14T00:37:10;11.38;83.62
64858;SHT30;51335;51.148;6.950;2023-03-14T00:37:40;11.41;83.55
64858;SHT30;51335;51.148;6.950;2023-03-14T00:38:11;11.45;83.42
64858;SHT30;51335;51.148;6.950;2023-03-14T00:38:43;11.44;83.28
64858;SHT30;51335;51.148;6.950;2023-03-14T00:39:13;11.42;83.34
64858;SHT30;51335;51.148;6.950;2023-03-14T00:39:43;11.44;83.20
64858;SHT30;51335;51.148;6.950;2023-03-14T00:40:14;11.42;83.25
64858;SHT30;51335;51.148;6.950;2023-03-14T00:40:44;11.39;83.24
64858;SHT30;51335;51.148;6.950;2023-03-14T00:41:20;11.41;83.35
64858;SHT30;51335;51.148;6.950;2023-03-14T00:41:51;11.45;83.23
64858;SHT30;51335;51.148;6.950;2023-03-14T00:42:21;11.46;83.18
64858;SHT30;51335;51.148;6.950;2023-03-14T00:42:51;11.48;83.13
64858;SHT30;51335;51.148;6.950;2023-03-14T00:43:22;11.48;83.15
64858;SHT30;51335;51.148;6.950;2023-03-14T00:43:52;11.50;83.02
64858;SHT30;51335;51.148;6.950;2023-03-14T00:44:22;11.50;82.89
64858;SHT30;51335;51.148;6.950;2023-03-14T00:44:53;11.50;82.98
64858;SHT30;51335;51.148;6.950;2023-03-14T00:45:23;11.51;82.95
64858;SHT30;51335;51.148;6.950;2023-03-14T00:45:53;11.51;82.84
64858;SHT30;51335;51.148;6.950;2023-03-14T00:46:24;11.50;82.85
64858;SHT30;51335;51.148;6.950;2023-03-14T00:46:54;11.52;82.94
64858;SHT30;51335;51.148;6.950;2023-03-14T00:47:24;11.55;82.84
64858;SHT30;51335;51.148;6.950;2023-03-14T00:47:54;11.59;82.75
64858;SHT30;51335;51.148;6.950;2023-03-14T00:48:25;11.55;82.73
64858;SHT30;51335;51.148;6.950;2023-03-14T00:48:55;11.52;82.88
64858;SHT30;51335;51.148;6.950;2023-03-14T00:49:26;11.55;82.90
64858;SHT30;51335;51.148;6.950;2023-03-14T00:49:56;11.57;82.78
64858;SHT30;51335;51.148;6.950;2023-03-14T00:50:26;11.58;82.82
64858;SHT30;51335;51.148;6.950;2023-03-14T00:50:57;11.64;82.82
64858;SHT30;51335;51.148;6.950;2023-03-14T00:51:27;11.65;82.63
64858;SHT30;51335;51.148;6.950;2023-03-14T00:51:57;11.65;82.57
64858;SHT30;51335;51.148;6.950;2023-03-14T00:52:28;11.65;82.47
64858;SHT30;51335;51.148;6.950;2023-03-14T00:52:58;11.65;82.43
64858;SHT30;51335;51.148;6.950;2023-03-14T00:53:28;11.64;82.54
64858;SHT30;51335;51.148;6.950;2023-03-14T00:53:59;11.66;82.95
64858;SHT30;51335;51.148;6.950;2023-03-14T00:54:30;11.71;83.30
64858;SHT30;51335;51.148;6.950;2023-03-14T00:55:00;11.65;83.51
64858;SHT30;51335;51.148;6.950;2023-03-14T00:55:30;11.51;84.70
64858;SHT30;51335;51.148;6.950;2023-03-14T00:56:07;11.45;85.31
64858;SHT30;51335;51.148;6.950;2023-03-14T00:56:38;11.45;85.15
64858;SHT30;51335;51.148;6.950;2023-03-14T00:57:08;11.28;84.97
64858;SHT30;51335;51.148;6.950;2023-03-14T00:57:38;11.24;85.12
64858;SHT30;51335;51.148;6.950;2023-03-14T00:58:10;11.20;86.04
64858;SHT30;51335;51.148;6.950;2023-03-14T00:58:42;11.17;86.22
64858;SHT30;51335;51.148;6.950;2023-03-14T00:59:12;11.16;86.28
64858;SHT30;51335;51.148;6.950;2023-03-14T00:59:43;11.17;86.38
64858;SHT30;51335;51.148;6.950;2023-03-14T01:00:14;11.18;86.73
64858;SHT30;51335;51.148;6.950;2023-03-14T01:00:45;11.18;86.53
64858;SHT30;51335;51.148;6.950;2023-03-14T01:01:17;11.11;86.54
64858;SHT30;51335;51.148;6.950;2023-03-14T01:01:48;11.07;86.56
64858;SHT30;51335;51.148;6.950;2023-03-14T01:02:18;10.79;86.34
64858;SHT30;51335;51.148;6.950;2023-03-14T01:02:48;10.58;87.61
64858;SHT30;51335;51.148;6.950;2023-03-14T01:03:19;10.53;88.18
64858;SHT30;51335;51.148;6.950;2023-03-14T01:03:54;10.56;88.45
64858;SHT30;51335;51.148;6.950;2023-03-14T01:04:25;10.59;88.79
64858;SHT30;51335;51.148;6.950;2023-03-14T01:04:55;10.58;88.96
64858;SHT30;51335;51.148;6.950;2023-03-14T01:05:26;10.56;89.13
64858;SHT30;51335;51.148;6.950;2023-03-14T01:06:07;10.56;89.03
64858;SHT30;51335;51.148;6.950;2023-03-14T01:06:38;10.52;88.75
64858;SHT30;51335;51.148;6.950;2023-03-14T01:07:09;10.44;88.92
64858;SHT30;51335;51.148;6.950;2023-03-14T01:07:39;10.39;89.19
64858;SHT30;51335;51.148;6.950;2023-03-14T01:08:10;10.37;89.32
64858;SHT30;51335;51.148;6.950;2023-03-14T01:08:40;10.32;89.61
64858;SHT30;51335;51.148;6.950;2023-03-14T01:09:11;10.28;89.77
64858;SHT30;51335;51.148;6.950;2023-03-14T01:09:41;10.25;90.02
64858;SHT30;51335;51.148;6.950;2023-03-14T01:10:11;10.21;90.24
64858;SHT30;51335;51.148;6.950;2023-03-14T01:10:42;10.18;90.50
64858;SHT30;51335;51.148;6.950;2023-03-14T01:11:14;10.18;90.60
64858;SHT30;51335;51.148;6.950;2023-03-14T01:11:45;10.15;90.71
64858;SHT30;51335;51.148;6.950;2023-03-14T01:12:15;10.10;90.72
64858;SHT30;51335;51.148;6.950;2023-03-14T01:12:46;10.07;90.87
64858;SHT30;51335;51.148;6.950;2023-03-14T01:13:16;10.02;90.98
64858;SHT30;51335;51.148;6.950;2023-03-14T01:13:47;10.02;91.11
64858;SHT30;51335;51.148;6.950;2023-03-14T01:14:17;9.98;91.20
64858;SHT30;51335;51.148;6.950;2023-03-14T01:14:47;9.98;91.22
64858;SHT30;51335;51.148;6.950;2023-03-14T01:15:18;10.01;91.28
64858;SHT30;51335;51.148;6.950;2023-03-14T01:15:48;10.01;91.15
64858;SHT30;51335;51.148;6.950;2023-03-14T01:16:19;10.02;91.22
64858;SHT30;51335;51.148;6.950;2023-03-14T01:16:50;9.94;91.13
64858;SHT30;51335;51.148;6.950;2023-03-14T01:17:21;9.87;91.53
64858;SHT30;51335;51.148;6.950;2023-03-14T01:17:51;9.87;91.66
64858;SHT30;51335;51.148;6.950;2023-03-14T01:18:21;9.86;91.73
64858;SHT30;51335;51.148;6.950;2023-03-14T01:18:52;9.83;91.81
64858;SHT30;51335;51.148;6.950;2023-03-14T01:19:22;9.81;91.94
64858;SHT30;51335;51.148;6.950;2023-03-14T01:19:52;9.81;92.05
64858;SHT30;51335;51.148;6.950;2023-03-14T01:20:23;9.81;92.05
64858;SHT30;51335;51.148;6.950;2023-03-14T01:20:53;9.79;92.12
64858;SHT30;51335;51.148;6.950;2023-03-14T01:21:34;9.73;92.22
64858;SHT30;51335;51.148;6.950;2023-03-14T01:22:04;9.74;92.31
64858;SHT30;51335;51.148;6.950;2023-03-14T01:22:36;9.71;92.29
64858;SHT30;51335;51.148;6.950;2023-03-14T01:23:07;9.74;92.40
64858;SHT30;51335;51.148;6.950;2023-03-14T01:23:37;9.74;92.38
64858;SHT30;51335;51.148;6.950;2023-03-14T01:24:10;9.74;92.39
64858;SHT30;51335;51.148;6.950;2023-03-14T01:24:41;9.77;92.45
64858;SHT30;51335;51.148;6.950;2023-03-14T01:25:15;9.76;92.41
64858;SHT30;51335;51.148;6.950;2023-03-14T01:25:46;9.76;92.45
64858;SHT30;51335;51.148;6.950;2023-03-14T01:26:18;9.77;92.50
64858;SHT30;51335;51.148;6.950;2023-03-14T01:26:49;9.77;92.60
64858;SHT30;51335;51.148;6.950;2023-03-14T01:27:19;9.74;92.57
64858;SHT30;51335;51.148;6.950;2023-03-14T01:27:49;9.74;92.64
64858;SHT30;51335;51.148;6.950;2023-03-14T01:28:20;9.73;92.52
64858;SHT30;51335;51.148;6.950;2023-03-14T01:28:52;9.73;92.51
64858;SHT30;51335;51.148;6.950;2023-03-14T01:29:23;9.74;92.57
64858;SHT30;51335;51.148;6.950;2023-03-14T01:29:53;9.74;92.68
64858;SHT30;51335;51.148;6.950;2023-03-14T01:30:24;9.73;92.70
64858;SHT30;51335;51.148;6.950;2023-03-14T01:30:54;9.71;92.74
64858;SHT30;51335;51.148;6.950;2023-03-14T01:31:25;9.76;92.80
64858;SHT30;51335;51.148;6.950;2023-03-14T01:31:55;9.76;92.76
64858;SHT30;51335;51.148;6.950;2023-03-14T01:32:25;9.77;92.82
64858;SHT30;51335;51.148;6.950;2023-03-14T01:32:56;9.77;92.60
64858;SHT30;51335;51.148;6.950;2023-03-14T01:33:26;9.81;92.58
64858;SHT30;51335;51.148;6.950;2023-03-14T01:33:56;9.81;92.57
64858;SHT30;51335;51.148;6.950;2023-03-14T01:34:27;9.80;92.53
64858;SHT30;51335;51.148;6.950;2023-03-14T01:34:57;9.81;92.62
64858;SHT30;51335;51.148;6.950;2023-03-14T01:35:27;9.83;92.59
64858;SHT30;51335;51.148;6.950;2023-03-14T01:35:58;9.84;92.57
64858;SHT30;51335;51.148;6.950;2023-03-14T01:36:28;9.83;92.70
64858;SHT30;51335;51.148;6.950;2023-03-14T01:36:58;9.81;92.84
64858;SHT30;51335;51.148;6.950;2023-03-14T01:37:29;9.84;92.84
64858;SHT30;51335;51.148;6.950;2023-03-14T01:37:59;9.86;92.75
64858;SHT30;51335;51.148;6.950;2023-03-14T01:38:30;9.81;92.72
64858;SHT30;51335;51.148;6.950;2023-03-14T01:39:01;9.81;92.82
64858;SHT30;51335;51.148;6.950;2023-03-14T01:39:32;9.83;92.91
64858;SHT30;51335;51.148;6.950;2023-03-14T01:40:02;9.77;92.92
64858;SHT30;51335;51.148;6.950;2023-03-14T01:40:33;9.76;93.05
64858;SHT30;51335;51.148;6.950;2023-03-14T01:41:03;9.73;93.12
64858;SHT30;51335;51.148;6.950;2023-03-14T01:41:34;9.70;93.20
64858;SHT30;51335;51.148;6.950;2023-03-14T01:42:04;9.69;93.36
64858;SHT30;51335;51.148;6.950;2023-03-14T01:42:35;9.66;93.50
64858;SHT30;51335;51.148;6.950;2023-03-14T01:43:13;9.69;93.61
64858;SHT30;51335;51.148;6.950;2023-03-14T01:43:44;9.67;93.59
64858;SHT30;51335;51.148;6.950;2023-03-14T01:44:15;9.67;93.48
64858;SHT30;51335;51.148;6.950;2023-03-14T01:46:35;9.63;93.69
64858;SHT30;51335;51.148;6.950;2023-03-14T01:47:07;9.63;93.77
64858;SHT30;51335;51.148;6.950;2023-03-14T01:47:37;9.64;93.80
64858;SHT30;51335;51.148;6.950;2023-03-14T01:48:07;9.61;93.82
64858;SHT30;51335;51.148;6.950;2023-03-14T01:48:46;9.60;93.86
64858;SHT30;51335;51.148;6.950;2023-03-14T01:49:33;9.61;93.97
64858;SHT30;51335;51.148;6.950;2023-03-14T01:50:08;9.66;93.86
64858;SHT30;51335;51.148;6.950;2023-03-14T01:50:39;9.66;93.86
64858;SHT30;51335;51.148;6.950;2023-03-14T01:51:19;9.63;93.83
64858;SHT30;51335;51.148;6.950;2023-03-14T01:52:34;9.66;94.05
64858;SHT30;51335;51.148;6.950;2023-03-14T01:53:06;9.61;93.95
64858;SHT30;51335;51.148;6.950;2023-03-14T01:53:38;9.59;93.98
64858;SHT30;51335;51.148;6.950;2023-03-14T01:54:16;9.60;94.07
64858;SHT30;51335;51.148;6.950;2023-03-14T01:54:50;9.63;94.09
64858;SHT30;51335;51.148;6.950;2023-03-14T01:55:24;9.64;94.10
64858;SHT30;51335;51.148;6.950;2023-03-14T01:55:55;9.66;93.96
64858;SHT30;51335;51.148;6.950;2023-03-14T01:56:26;9.73;93.68
64858;SHT30;51335;51.148;6.950;2023-03-14T01:57:11;9.71;93.56
64858;SHT30;51335;51.148;6.950;2023-03-14T01:57:58;9.73;93.56
64858;SHT30;51335;51.148;6.950;2023-03-14T01:58:30;9.76;93.43
64858;SHT30;51335;51.148;6.950;2023-03-14T01:59:04;9.76;93.21
64858;SHT30;51335;51.148;6.950;2023-03-14T01:59:37;9.77;93.24
64858;SHT30;51335;51.148;6.950;2023-03-14T02:00:12;9.74;93.15
64858;SHT30;51335;51.148;6.950;2023-03-14T02:00:43;9.73;93.28
64858;SHT30;51335;51.148;6.950;2023-03-14T02:01:16;9.71;93.35
64858;SHT30;51335;51.148;6.950;2023-03-14T02:01:49;9.71;93.40
64858;SHT30;51335;51.148;6.950;2023-03-14T02:02:21;9.73;93.38
64858;SHT30;51335;51.148;6.950;2023-03-14T02:03:01;9.74;93.36
64858;SHT30;51335;51.148;6.950;2023-03-14T02:03:36;9.73;93.29
64858;SHT30;51335;51.148;6.950;2023-03-14T02:04:08;9.73;93.33
64858;SHT30;51335;51.148;6.950;2023-03-14T02:04:40;9.70;93.35
64858;SHT30;51335;51.148;6.950;2023-03-14T02:05:12;9.69;93.47
64858;SHT30;51335;51.148;6.950;2023-03-14T02:05:44;9.74;93.45
64858;SHT30;51335;51.148;6.950;2023-03-14T02:06:17;9.77;93.31
64858;SHT30;51335;51.148;6.950;2023-03-14T02:06:51;9.76;93.20
64858;SHT30;51335;51.148;6.950;2023-03-14T02:07:37;9.73;93.25
64858;SHT30;51335;51.148;6.950;2023-03-14T02:08:12;9.70;93.30
64858;SHT30;51335;51.148;6.950;2023-03-14T02:08:43;9.73;93.42
64858;SHT30;51335;51.148;6.950;2023-03-14T02:09:14;9.79;93.21
64858;SHT30;51335;51.148;6.950;2023-03-14T02:09:44;9.83;93.07
64858;SHT30;51335;51.148;6.950;2023-03-14T02:10:17;9.77;92.75
64858;SHT30;51335;51.148;6.950;2023-03-14T02:10:49;9.77;92.78
64858;SHT30;51335;51.148;6.950;2023-03-14T02:11:20;9.76;92.80
64858;SHT30;51335;51.148;6.950;2023-03-14T02:11:52;9.74;92.83
64858;SHT30;51335;51.148;6.950;2023-03-14T02:12:23;9.77;92.80
64858;SHT30;51335;51.148;6.950;2023-03-14T02:12:55;9.77;92.61
64858;SHT30;51335;51.148;6.950;2023-03-14T02:13:26;9.74;92.63
64858;SHT30;51335;51.148;6.950;2023-03-14T02:13:58;9.76;92.69
64858;SHT30;51335;51.148;6.950;2023-03-14T02:14:34;9.76;92.73
64858;SHT30;51335;51.148;6.950;2023-03-14T02:15:05;9.71;92.68
64858;SHT30;51335;51.148;6.950;2023-03-14T02:15:36;9.69;92.78
64858;SHT30;51335;51.148;6.950;2023-03-14T02:16:07;9.74;92.95
64858;SHT30;51335;51.148;6.950;2023-03-14T02:16:37;9.70;92.88
64858;SHT30;51335;51.148;6.950;2023-03-14T02:17:08;9.69;92.98
64858;SHT30;51335;51.148;6.950;2023-03-14T02:17:40;9.70;93.00
64858;SHT30;51335;51.148;6.950;2023-03-14T02:18:12;9.67;92.98
64858;SHT30;51335;51.148;6.950;2023-03-14T02:18:43;9.66;93.13
64858;SHT30;51335;51.148;6.950;2023-03-14T02:19:17;9.69;93.22
64858;SHT30;51335;51.148;6.950;2023-03-14T02:21:12;9.59;93.37
64858;SHT30;51335;51.148;6.950;2023-03-14T02:21:57;9.59;93.45
64858;SHT30;51335;51.148;6.950;2023-03-14T02:22:31;9.60;93.53
64858;SHT30;51335;51.148;6.950;2023-03-14T02:23:01;9.63;93.55
64858;SHT30;51335;51.148;6.950;2023-03-14T02:24:27;9.63;93.47
64858;SHT30;51335;51.148;6.950;2023-03-14T02:25:38;9.61;93.31
64858;SHT30;51335;51.148;6.950;2023-03-14T02:27:10;9.60;93.45
64858;SHT30;51335;51.148;6.950;2023-03-14T02:27:20;9.64;93.48
64858;SHT30;51335;51.148;6.950;2023-03-14T02:27:50;9.66;93.36
64858;SHT30;51335;51.148;6.950;2023-03-14T02:28:21;9.67;93.26
64858;SHT30;51335;51.148;6.950;2023-03-14T02:28:53;9.66;93.15
64858;SHT30;51335;51.148;6.950;2023-03-14T02:29:24;9.64;93.25
64858;SHT30;51335;51.148;6.950;2023-03-14T02:30:33;9.63;93.49
64858;SHT30;51335;51.148;6.950;2023-03-14T02:31:04;9.64;93.47
64858;SHT30;51335;51.148;6.950;2023-03-14T02:31:35;9.61;93.54
64858;SHT30;51335;51.148;6.950;2023-03-14T02:32:06;9.63;93.50
64858;SHT30;51335;51.148;6.950;2023-03-14T02:32:40;9.63;93.56
64858;SHT30;51335;51.148;6.950;2023-03-14T02:33:13;9.59;93.61
64858;SHT30;51335;51.148;6.950;2023-03-14T02:33:44;9.54;93.71
64858;SHT30;51335;51.148;6.950;2023-03-14T02:34:15;9.57;93.79
64858;SHT30;51335;51.148;6.950;2023-03-14T02:34:49;9.60;93.77
64858;SHT30;51335;51.148;6.950;2023-03-14T02:35:27;9.61;93.85
64858;SHT30;51335;51.148;6.950;2023-03-14T02:36:00;9.66;93.78
64858;SHT30;51335;51.148;6.950;2023-03-14T02:36:31;9.63;93.65
64858;SHT30;51335;51.148;6.950;2023-03-14T02:37:02;9.61;93.75
64858;SHT30;51335;51.148;6.950;2023-03-14T02:37:41;9.64;93.73
64858;SHT30;51335;51.148;6.950;2023-03-14T02:38:33;9.66;93.65
64858;SHT30;51335;51.148;6.950;2023-03-14T02:39:14;9.66;93.52
64858;SHT30;51335;51.148;6.950;2023-03-14T02:39:46;9.66;93.44
64858;SHT30;51335;51.148;6.950;2023-03-14T02:40:17;9.64;93.42
64858;SHT30;51335;51.148;6.950;2023-03-14T02:40:48;9.66;93.51
64858;SHT30;51335;51.148;6.950;2023-03-14T02:41:18;9.67;93.54
64858;SHT30;51335;51.148;6.950;2023-03-14T02:41:49;9.69;93.39
64858;SHT30;51335;51.148;6.950;2023-03-14T02:42:19;9.71;93.35
64858;SHT30;51335;51.148;6.950;2023-03-14T02:42:50;9.71;93.30
64858;SHT30;51335;51.148;6.950;2023-03-14T02:43:20;9.66;93.28
64858;SHT30;51335;51.148;6.950;2023-03-14T02:43:51;9.67;93.32
64858;SHT30;51335;51.148;6.950;2023-03-14T02:44:21;9.66;93.52
64858;SHT30;51335;51.148;6.950;2023-03-14T02:45:01;9.69;93.45
64858;SHT30;51335;51.148;6.950;2023-03-14T02:45:51;9.67;93.32
64858;SHT30;51335;51.148;6.950;2023-03-14T02:46:21;9.69;93.32
64858;SHT30;51335;51.148;6.950;2023-03-14T02:46:52;9.69;93.30
64858;SHT30;51335;51.148;6.950;2023-03-14T02:47:29;9.69;93.23
64858;SHT30;51335;51.148;6.950;2023-03-14T02:48:03;9.71;93.22
64858;SHT30;51335;51.148;6.950;2023-03-14T02:49:08;9.74;92.83
64858;SHT30;51335;51.148;6.950;2023-03-14T02:49:40;9.74;92.85
64858;SHT30;51335;51.148;6.950;2023-03-14T02:50:18;9.79;92.72
64858;SHT30;51335;51.148;6.950;2023-03-14T02:50:50;9.80;92.70
64858;SHT30;51335;51.148;6.950;2023-03-14T02:51:23;9.83;92.63
64858;SHT30;51335;51.148;6.950;2023-03-14T02:51:54;9.83;92.50
64858;SHT30;51335;51.148;6.950;2023-03-14T02:52:24;9.80;92.47
64858;SHT30;51335;51.148;6.950;2023-03-14T02:52:54;9.80;92.45
64858;SHT30;51335;51.148;6.950;2023-03-14T02:53:28;9.79;92.53
64858;SHT30;51335;51.148;6.950;2023-03-14T02:53:59;9.79;92.60
64858;SHT30;51335;51.148;6.950;2023-03-14T02:54:30;9.76;92.59
64858;SHT30;51335;51.148;6.950;2023-03-14T02:55:00;9.79;92.51
64858;SHT30;51335;51.148;6.950;2023-03-14T02:55:31;9.73;92.47
64858;SHT30;51335;51.148;6.950;2023-03-14T02:56:01;9.76;92.49
64858;SHT30;51335;51.148;6.950;2023-03-14T02:56:32;9.77;92.55
64858;SHT30;51335;51.148;6.950;2023-03-14T02:57:03;9.80;92.50
64858;SHT30;51335;51.148;6.950;2023-03-14T02:57:33;9.79;92.43
64858;SHT30;51335;51.148;6.950;2023-03-14T02:58:03;9.79;92.27
64858;SHT30;51335;51.148;6.950;2023-03-14T02:58:34;9.81;92.31
64858;SHT30;51335;51.148;6.950;2023-03-14T02:59:05;9.80;92.31
64858;SHT30;51335;51.148;6.950;2023-03-14T02:59:36;9.79;92.34
64858;SHT30;51335;51.148;6.950;2023-03-14T03:00:07;9.80;92.36
64858;SHT30;51335;51.148;6.950;2023-03-14T03:00:37;9.79;92.36
64858;SHT30;51335;51.148;6.950;2023-03-14T03:01:07;9.79;92.49
64858;SHT30;51335;51.148;6.950;2023-03-14T03:01:38;9.73;92.45
64858;SHT30;51335;51.148;6.950;2023-03-14T03:02:08;9.76;92.65
64858;SHT30;51335;51.148;6.950;2023-03-14T03:02:38;9.76;92.67
64858;SHT30;51335;51.148;6.950;2023-03-14T03:03:09;9.73;92.65
64858;SHT30;51335;51.148;6.950;2023-03-14T03:03:39;9.74;92.74
64858;SHT30;51335;51.148;6.950;2023-03-14T03:04:09;9.77;92.63
64858;SHT30;51335;51.148;6.950;2023-03-14T03:04:40;9.76;92.60
64858;SHT30;51335;51.148;6.950;2023-03-14T03:05:10;9.77;92.47
64858;SHT30;51335;51.148;6.950;2023-03-14T03:05:40;9.79;92.53
64858;SHT30;51335;51.148;6.950;2023-03-14T03:06:11;9.74;92.53
64858;SHT30;51335;51.148;6.950;2023-03-14T03:06:41;9.80;92.52
64858;SHT30;51335;51.148;6.950;2023-03-14T03:07:11;9.81;92.38
64858;SHT30;51335;51.148;6.950;2023-03-14T03:07:42;9.77;92.43
64858;SHT30;51335;51.148;6.950;2023-03-14T03:08:12;9.74;92.44
64858;SHT30;51335;51.148;6.950;2023-03-14T03:08:42;9.76;92.53
64858;SHT30;51335;51.148;6.950;2023-03-14T03:09:12;9.79;92.53
64858;SHT30;51335;51.148;6.950;2023-03-14T03:09:43;9.80;92.39
64858;SHT30;51335;51.148;6.950;2023-03-14T03:10:13;9.84;92.37
64858;SHT30;51335;51.148;6.950;2023-03-14T03:10:44;9.81;92.18
64858;SHT30;51335;51.148;6.950;2023-03-14T03:11:14;9.83;92.04
64858;SHT30;51335;51.148;6.950;2023-03-14T03:11:44;9.77;92.04
64858;SHT30;51335;51.148;6.950;2023-03-14T03:12:14;9.74;92.16
64858;SHT30;51335;51.148;6.950;2023-03-14T03:12:45;9.71;92.26
64858;SHT30;51335;51.148;6.950;2023-03-14T03:13:16;9.74;92.35
64858;SHT30;51335;51.148;6.950;2023-03-14T03:13:47;9.77;92.31
64858;SHT30;51335;51.148;6.950;2023-03-14T03:14:17;9.71;92.31
64858;SHT30;51335;51.148;6.950;2023-03-14T03:14:47;9.74;92.37
64858;SHT30;51335;51.148;6.950;2023-03-14T03:15:18;9.79;92.37
64858;SHT30;51335;51.148;6.950;2023-03-14T03:15:48;9.79;92.27
64858;SHT30;51335;51.148;6.950;2023-03-14T03:16:19;9.80;92.28
64858;SHT30;51335;51.148;6.950;2023-03-14T03:16:49;9.80;92.18
64858;SHT30;51335;51.148;6.950;2023-03-14T03:17:19;9.81;92.11
64858;SHT30;51335;51.148;6.950;2023-03-14T03:17:50;9.81;92.07
64858;SHT30;51335;51.148;6.950;2023-03-14T03:18:20;9.83;92.04
64858;SHT30;51335;51.148;6.950;2023-03-14T03:18:50;9.86;91.96
64858;SHT30;51335;51.148;6.950;2023-03-14T03:19:20;9.86;91.96
64858;SHT30;51335;51.148;6.950;2023-03-14T03:19:51;9.88;91.80
64858;SHT30;51335;51.148;6.950;2023-03-14T03:20:21;9.93;91.75
64858;SHT30;51335;51.148;6.950;2023-03-14T03:20:51;9.94;91.64
64858;SHT30;51335;51.148;6.950;2023-03-14T03:21:22;9.97;91.44
64858;SHT30;51335;51.148;6.950;2023-03-14T03:21:52;9.98;91.39
64858;SHT30;51335;51.148;6.950;2023-03-14T03:22:22;9.94;91.42
64858;SHT30;51335;51.148;6.950;2023-03-14T03:22:53;9.97;91.43
64858;SHT30;51335;51.148;6.950;2023-03-14T03:23:23;9.95;91.42
64858;SHT30;51335;51.148;6.950;2023-03-14T03:23:53;9.97;91.41
64858;SHT30;51335;51.148;6.950;2023-03-14T03:24:25;9.93;91.45
64858;SHT30;51335;51.148;6.950;2023-03-14T03:24:55;9.90;91.53
64858;SHT30;51335;51.148;6.950;2023-03-14T03:25:26;9.87;91.66
64858;SHT30;51335;51.148;6.950;2023-03-14T03:25:56;9.81;91.72
64858;SHT30;51335;51.148;6.950;2023-03-14T03:26:26;9.88;91.79
64858;SHT30;51335;51.148;6.950;2023-03-14T03:26:57;9.87;91.77
64858;SHT30;51335;51.148;6.950;2023-03-14T03:27:30;9.93;91.74
64858;SHT30;51335;51.148;6.950;2023-03-14T03:28:00;9.94;91.62
64858;SHT30;51335;51.148;6.950;2023-03-14T03:28:31;9.94;91.58